Time;durP1;ratioP1;P1;durP2;ratioP2;P2;SDS_P1;SDS_P2;PMS_P1;PMS_P2;Temp;Humidity;BMP_temperature;BMP_pressure;BME280_temperature;BME280_humidity;BME280_pressure;Samples;Min_cycle;Max_cycle;Signal;HPM_P1;HPM_P2
2024/04/02 00:00:42;;;;;;;2.22;1.50;;;11.70;99.90;;;;;;5024557;28;20083;-77
2024/04/02 00:03:09;;;;;;;4.88;1.50;;;11.60;99.90;;;;;;5025766;28;20054;-79
2024/04/02 00:05:36;;;;;;;5.65;1.50;;;11.60;99.90;;;;;;5024622;28;20033;-77
2024/04/02 00:08:03;;;;;;;2.90;1.25;;;11.70;99.90;;;;;;5025066;28;20463;-78
2024/04/02 00:10:32;;;;;;;2.85;1.23;;;11.60;99.90;;;;;;5025247;28;20080;-78
2024/04/02 00:12:58;;;;;;;1.80;1.30;;;11.60;99.90;;;;;;5024968;28;20029;-79
2024/04/02 00:15:24;;;;;;;6.35;1.77;;;11.50;99.90;;;;;;5024852;28;20474;-79
2024/04/02 00:17:51;;;;;;;4.85;1.40;;;11.50;99.90;;;;;;5024407;28;20029;-77
2024/04/02 00:20:17;;;;;;;5.00;1.50;;;11.40;99.90;;;;;;5024167;28;20092;-78
2024/04/02 00:22:44;;;;;;;2.67;1.38;;;11.40;99.90;;;;;;5024370;28;20111;-79
2024/04/02 00:25:10;;;;;;;3.40;1.70;;;11.40;99.90;;;;;;5024115;28;20109;-78
2024/04/02 00:27:36;;;;;;;4.70;1.38;;;11.40;99.90;;;;;;5024603;28;20037;-78
2024/04/02 00:30:02;;;;;;;2.20;1.17;;;11.40;99.90;;;;;;5024942;28;20026;-78
2024/04/02 00:32:28;;;;;;;3.83;1.10;;;11.30;99.90;;;;;;5023783;28;20053;-79
2024/04/02 00:34:54;;;;;;;5.57;1.30;;;11.30;99.90;;;;;;5024534;28;20055;-79
2024/04/02 00:37:20;;;;;;;3.53;1.50;;;11.30;99.90;;;;;;5024709;28;20017;-80
2024/04/02 00:39:46;;;;;;;2.45;1.35;;;11.30;99.90;;;;;;5025014;28;20029;-78
2024/04/02 00:42:13;;;;;;;4.15;1.42;;;11.30;99.90;;;;;;5024761;28;20048;-78
2024/04/02 00:44:38;;;;;;;3.38;1.25;;;11.30;99.90;;;;;;5024176;28;20025;-78
2024/04/02 00:47:05;;;;;;;2.83;1.65;;;11.30;99.90;;;;;;5025024;28;20037;-78
2024/04/02 00:49:32;;;;;;;2.38;1.20;;;11.30;99.90;;;;;;5024746;28;20462;-78
2024/04/02 00:51:59;;;;;;;9.52;1.95;;;11.30;99.90;;;;;;5024506;28;20057;-77
2024/04/02 00:54:26;;;;;;;4.10;1.45;;;11.30;99.90;;;;;;5023806;28;20029;-77
2024/04/02 00:56:51;;;;;;;6.00;1.42;;;11.30;99.90;;;;;;5024583;28;20026;-77
2024/04/02 00:59:17;;;;;;;2.30;1.30;;;11.30;99.90;;;;;;5024064;28;20355;-78
2024/04/02 01:01:43;;;;;;;3.45;1.45;;;11.20;99.90;;;;;;5025155;28;20026;-77
2024/04/02 01:04:10;;;;;;;4.07;1.48;;;11.10;99.90;;;;;;5023318;28;20040;-77
2024/04/02 01:06:36;;;;;;;2.85;1.10;;;11.10;99.90;;;;;;5023936;28;20041;-77
2024/04/02 01:09:04;;;;;;;3.05;1.58;;;11.10;99.90;;;;;;5024837;28;20025;-77
2024/04/02 01:11:31;;;;;;;3.45;1.40;;;11.10;99.90;;;;;;5024068;28;20049;-77
2024/04/02 01:13:57;;;;;;;3.60;1.30;;;11.10;99.90;;;;;;5023740;28;20025;-77
2024/04/02 01:16:23;;;;;;;4.90;1.63;;;11.10;99.90;;;;;;5024414;28;20022;-78
2024/04/02 01:18:49;;;;;;;6.72;1.83;;;11.00;99.90;;;;;;5024656;28;20493;-77
2024/04/02 01:21:19;;;;;;;4.93;1.50;;;11.00;99.90;;;;;;5024913;28;20021;-77
2024/04/02 01:23:48;;;;;;;2.85;1.27;;;11.00;99.90;;;;;;5023508;28;20032;-77
2024/04/02 01:26:14;;;;;;;4.00;1.20;;;11.00;99.90;;;;;;5024326;28;20037;-78
2024/04/02 01:28:40;;;;;;;5.28;1.60;;;11.00;99.90;;;;;;5024410;28;20474;-78
2024/04/02 01:31:06;;;;;;;4.03;1.48;;;10.90;99.90;;;;;;5024421;28;20483;-77
2024/04/02 01:33:31;;;;;;;4.85;1.67;;;11.00;99.90;;;;;;5023973;28;20087;-77
2024/04/02 01:35:57;;;;;;;3.25;1.55;;;11.00;99.90;;;;;;5028076;28;20033;-77
2024/04/02 01:38:24;;;;;;;1.52;1.17;;;11.00;99.90;;;;;;5026811;28;20108;-76
2024/04/02 01:40:49;;;;;;;4.60;1.52;;;11.00;99.90;;;;;;5028416;28;20029;-77
2024/04/02 01:43:15;;;;;;;6.95;1.30;;;11.00;99.90;;;;;;5026627;28;20032;-77
2024/04/02 01:45:41;;;;;;;2.38;1.25;;;10.90;99.90;;;;;;5028164;28;21022;-76
2024/04/02 01:48:06;;;;;;;3.85;1.30;;;11.00;99.90;;;;;;5027861;28;20124;-77
2024/04/02 01:50:32;;;;;;;5.28;1.55;;;11.00;99.90;;;;;;5027969;28;20022;-77
2024/04/02 01:52:58;;;;;;;3.58;1.27;;;11.10;99.90;;;;;;5026770;28;20032;-77
2024/04/02 01:55:25;;;;;;;4.72;1.40;;;11.10;99.90;;;;;;5027265;28;20033;-77
2024/04/02 01:57:50;;;;;;;2.95;1.83;;;11.00;99.90;;;;;;5026859;28;20056;-77
2024/04/02 02:00:18;;;;;;;5.90;1.52;;;10.90;99.90;;;;;;5028111;28;20478;-77
2024/04/02 02:02:43;;;;;;;7.00;1.60;;;10.90;99.90;;;;;;5027537;28;20079;-76
2024/04/02 02:05:09;;;;;;;3.40;1.38;;;10.80;99.90;;;;;;5024739;28;20033;-76
2024/04/02 02:07:35;;;;;;;5.40;1.90;;;10.80;99.90;;;;;;5027691;28;20034;-77
2024/04/02 02:10:01;;;;;;;3.60;1.60;;;10.90;99.90;;;;;;5027106;28;20029;-77
2024/04/02 02:12:26;;;;;;;4.05;1.90;;;10.80;99.90;;;;;;5026625;28;20029;-77
2024/04/02 02:14:52;;;;;;;4.95;1.63;;;10.90;99.90;;;;;;5025946;28;20029;-76
2024/04/02 02:17:18;;;;;;;3.10;2.25;;;10.90;99.90;;;;;;5026902;28;20022;-76
2024/04/02 02:19:44;;;;;;;3.90;1.38;;;10.80;99.90;;;;;;5028035;28;20169;-77
2024/04/02 02:22:10;;;;;;;4.22;1.50;;;10.80;99.90;;;;;;5026609;28;20037;-77
2024/04/02 02:24:35;;;;;;;5.07;1.90;;;10.80;99.90;;;;;;5027455;28;20111;-77
2024/04/02 02:27:01;;;;;;;4.78;1.90;;;10.80;99.90;;;;;;5027325;28;20057;-77
2024/04/02 02:29:27;;;;;;;3.55;1.50;;;10.70;99.90;;;;;;5028777;28;20040;-77
2024/04/02 02:31:53;;;;;;;5.28;1.63;;;10.70;99.90;;;;;;5027775;28;20500;-77
2024/04/02 02:34:18;;;;;;;3.60;1.55;;;10.70;99.90;;;;;;5026352;28;20392;-77
2024/04/02 02:36:44;;;;;;;6.22;1.58;;;10.70;99.90;;;;;;5028922;28;20029;-77
2024/04/02 02:39:13;;;;;;;2.05;1.35;;;10.70;99.90;;;;;;5027572;28;20018;-76
2024/04/02 02:41:39;;;;;;;6.15;2.00;;;10.60;99.90;;;;;;5028872;28;20025;-76
2024/04/02 02:44:05;;;;;;;3.25;1.92;;;10.60;99.90;;;;;;5026808;28;20482;-77
2024/04/02 02:46:31;;;;;;;4.47;1.60;;;10.60;99.90;;;;;;5028715;28;20077;-77
2024/04/02 02:48:59;;;;;;;4.55;1.55;;;10.60;99.90;;;;;;5027412;28;20036;-76
2024/04/02 02:51:25;;;;;;;2.45;1.42;;;10.50;99.90;;;;;;5028550;28;20052;-76
2024/04/02 02:53:50;;;;;;;4.43;1.50;;;10.50;99.90;;;;;;5028151;28;20030;-76
2024/04/02 02:56:16;;;;;;;5.03;1.65;;;10.50;99.90;;;;;;5028305;28;20573;-76
2024/04/02 02:58:42;;;;;;;4.40;1.50;;;10.40;99.90;;;;;;5027633;28;20083;-76
2024/04/02 03:01:09;;;;;;;4.30;1.63;;;10.40;99.90;;;;;;5028017;28;20033;-76
2024/04/02 03:03:34;;;;;;;2.28;1.83;;;10.40;99.90;;;;;;5028090;28;20475;-76
2024/04/02 03:06:00;;;;;;;3.45;2.05;;;10.40;99.90;;;;;;5026236;28;20107;-76
2024/04/02 03:08:26;;;;;;;6.15;1.55;;;10.30;99.90;;;;;;5028164;28;20084;-76
2024/04/02 03:11:03;;;;;;;5.40;1.75;;;10.40;99.90;;;;;;5027827;28;20087;-76
2024/04/02 03:13:30;;;;;;;5.10;1.90;;;10.40;99.90;;;;;;5028190;28;20036;-76
2024/04/02 03:15:56;;;;;;;7.43;1.75;;;10.40;99.90;;;;;;5028042;28;20125;-76
2024/04/02 03:18:22;;;;;;;6.15;1.98;;;10.40;99.90;;;;;;5027868;28;20105;-76
2024/04/02 03:20:48;;;;;;;3.78;1.60;;;10.30;99.90;;;;;;5027125;28;20087;-76
2024/04/02 03:23:16;;;;;;;5.05;2.17;;;10.30;99.90;;;;;;5026094;28;20025;-76
2024/04/02 03:25:42;;;;;;;3.90;1.70;;;10.30;99.90;;;;;;5027797;28;20033;-76
2024/04/02 03:28:07;;;;;;;4.68;1.80;;;10.20;99.90;;;;;;5026304;28;20029;-76
2024/04/02 03:30:33;;;;;;;7.60;2.17;;;10.30;99.90;;;;;;5027786;28;20022;-76
2024/04/02 03:32:59;;;;;;;3.95;1.60;;;10.40;99.90;;;;;;5026413;28;20237;-76
2024/04/02 03:35:25;;;;;;;10.98;1.73;;;10.40;99.90;;;;;;5027438;28;20056;-76
2024/04/02 03:37:50;;;;;;;3.92;1.85;;;10.40;99.90;;;;;;5026903;28;20040;-76
2024/04/02 03:40:16;;;;;;;8.00;1.90;;;10.40;99.90;;;;;;5026536;28;20472;-76
2024/04/02 03:42:42;;;;;;;5.47;2.00;;;10.30;99.90;;;;;;5027574;28;20474;-76
2024/04/02 03:45:08;;;;;;;3.13;1.70;;;10.40;99.90;;;;;;5026656;28;20078;-76
2024/04/02 03:47:34;;;;;;;6.15;2.00;;;10.40;99.90;;;;;;5027488;28;20032;-76
2024/04/02 03:50:00;;;;;;;6.60;1.80;;;10.30;99.90;;;;;;5027394;28;20037;-76
2024/04/02 03:52:25;;;;;;;3.63;2.13;;;10.40;99.90;;;;;;5027019;28;20017;-76
2024/04/02 03:54:51;;;;;;;5.78;2.13;;;10.40;99.90;;;;;;5026975;28;20025;-77
2024/04/02 03:57:17;;;;;;;5.15;1.83;;;10.40;99.90;;;;;;5026738;28;20534;-76
2024/04/02 03:59:42;;;;;;;3.65;2.33;;;10.40;99.90;;;;;;5027006;28;20118;-76
2024/04/02 04:02:08;;;;;;;8.27;1.98;;;10.50;99.90;;;;;;5026884;28;20379;-76
2024/04/02 04:04:34;;;;;;;3.45;1.55;;;10.50;99.90;;;;;;5025562;28;20485;-76
2024/04/02 04:06:59;;;;;;;7.22;2.80;;;10.40;99.90;;;;;;5026817;28;20098;-76
2024/04/02 04:09:25;;;;;;;5.30;2.30;;;10.40;99.90;;;;;;5025383;28;20064;-76
2024/04/02 04:11:51;;;;;;;5.93;2.28;;;10.40;99.90;;;;;;5027015;28;20101;-76
2024/04/02 04:14:17;;;;;;;6.00;2.60;;;10.40;99.90;;;;;;5025581;28;20018;-76
2024/04/02 04:16:43;;;;;;;5.00;2.28;;;10.50;99.90;;;;;;5027052;28;20032;-76
2024/04/02 04:19:09;;;;;;;6.00;2.33;;;10.50;99.90;;;;;;5027089;28;20057;-76
2024/04/02 04:21:36;;;;;;;6.65;2.03;;;10.50;99.90;;;;;;5026746;28;20053;-76
2024/04/02 04:24:02;;;;;;;6.97;2.30;;;10.50;99.90;;;;;;5026430;28;20021;-76
2024/04/02 04:26:28;;;;;;;5.25;2.08;;;10.50;99.90;;;;;;5026306;28;20064;-76
2024/04/02 04:28:53;;;;;;;4.88;2.13;;;10.50;99.90;;;;;;5025890;28;20391;-76
2024/04/02 04:31:19;;;;;;;7.07;2.47;;;10.50;99.90;;;;;;5026670;28;20030;-76
2024/04/02 04:33:45;;;;;;;8.95;2.55;;;10.50;99.90;;;;;;5026809;28;20025;-76
2024/04/02 04:36:12;;;;;;;7.07;2.70;;;10.60;99.90;;;;;;5026735;28;20025;-76
2024/04/02 04:38:38;;;;;;;6.78;2.20;;;10.60;99.90;;;;;;5026075;28;20022;-75
2024/04/02 04:41:03;;;;;;;6.47;2.63;;;10.60;99.90;;;;;;5027091;28;20031;-76
2024/04/02 04:43:29;;;;;;;5.15;2.22;;;10.60;99.90;;;;;;5025704;28;20022;-76
2024/04/02 04:45:57;;;;;;;7.07;2.50;;;10.60;99.90;;;;;;5026861;28;20037;-76
2024/04/02 04:48:23;;;;;;;9.35;2.40;;;10.60;99.90;;;;;;5026129;28;20025;-76
2024/04/02 04:50:55;;;;;;;8.65;2.25;;;10.60;99.90;;;;;;5025991;28;20026;-76
2024/04/02 04:53:21;;;;;;;9.05;2.55;;;10.60;99.90;;;;;;5025529;28;20045;-76
2024/04/02 04:55:46;;;;;;;5.10;2.22;;;10.60;99.90;;;;;;5026582;28;20059;-76
2024/04/02 04:58:12;;;;;;;4.60;2.00;;;10.60;99.90;;;;;;5026815;28;20105;-76
2024/04/02 05:00:38;;;;;;;4.90;2.05;;;10.60;99.90;;;;;;5022696;28;20057;-76
2024/04/02 05:03:04;;;;;;;7.40;2.28;;;10.70;99.90;;;;;;5025119;28;20059;-76
2024/04/02 05:05:29;;;;;;;6.40;2.25;;;10.70;99.90;;;;;;5025651;28;20061;-76
2024/04/02 05:08:18;;;;;;;8.05;2.30;;;10.70;99.90;;;;;;5027574;28;20022;-76
2024/04/02 05:10:44;;;;;;;7.45;2.10;;;10.70;99.90;;;;;;5026996;28;20094;-76
2024/04/02 05:13:11;;;;;;;10.20;2.70;;;10.60;99.90;;;;;;5028687;28;20040;-76
2024/04/02 05:15:37;;;;;;;9.32;5.28;;;10.60;99.90;;;;;;5029504;28;20061;-76
2024/04/02 05:18:03;;;;;;;10.65;2.80;;;10.60;99.90;;;;;;5029214;28;20049;-76
2024/04/02 05:20:28;;;;;;;10.60;2.83;;;10.60;99.90;;;;;;5028740;28;20433;-76
2024/04/02 05:22:54;;;;;;;9.02;2.30;;;10.70;99.90;;;;;;5030014;28;20026;-72
2024/04/02 05:25:20;;;;;;;11.05;2.75;;;10.70;99.90;;;;;;5030080;28;20056;-76
2024/04/02 05:27:47;;;;;;;10.52;2.67;;;10.80;99.90;;;;;;5027626;28;20032;-76
2024/04/02 05:30:13;;;;;;;11.75;2.63;;;10.80;99.90;;;;;;5030015;28;20110;-77
2024/04/02 05:32:40;;;;;;;7.80;2.10;;;10.70;99.90;;;;;;5029452;28;20490;-76
2024/04/02 05:35:06;;;;;;;9.45;2.10;;;10.80;99.90;;;;;;5029301;28;20104;-76
2024/04/02 05:37:31;;;;;;;6.68;2.60;;;10.80;99.90;;;;;;5030095;28;20475;-77
2024/04/02 05:39:57;;;;;;;6.85;2.40;;;10.70;99.90;;;;;;5027369;28;20030;-76
2024/04/02 05:42:23;;;;;;;4.63;2.03;;;10.80;99.90;;;;;;5028363;28;20030;-76
2024/04/02 05:44:49;;;;;;;9.32;2.50;;;10.80;99.90;;;;;;5029735;28;20032;-77
2024/04/02 05:47:16;;;;;;;18.08;3.38;;;10.80;99.90;;;;;;5029827;28;20029;-77
2024/04/02 05:49:41;;;;;;;9.43;2.58;;;10.80;99.90;;;;;;5026480;28;20036;-76
2024/04/02 05:52:07;;;;;;;15.65;2.78;;;10.70;99.90;;;;;;5028652;28;20561;-76
2024/04/02 05:54:33;;;;;;;9.68;2.55;;;10.60;99.90;;;;;;5026657;28;20026;-77
2024/04/02 05:56:59;;;;;;;12.73;2.88;;;10.70;99.90;;;;;;5028784;28;20025;-77
2024/04/02 05:59:42;;;;;;;12.82;2.72;;;10.60;99.90;;;;;;5102420;27;20838;-77
2024/04/02 06:02:08;;;;;;;15.10;3.50;;;10.60;99.90;;;;;;5104906;28;20023;-77
2024/04/02 06:04:34;;;;;;;10.25;2.67;;;10.60;99.90;;;;;;5102679;28;20031;-73
2024/04/02 06:07:00;;;;;;;10.80;2.78;;;10.70;99.90;;;;;;5104770;28;20032;-78
2024/04/02 06:09:25;;;;;;;9.57;2.55;;;10.70;99.90;;;;;;5102244;28;20031;-80
2024/04/02 06:11:51;;;;;;;15.52;2.90;;;10.80;99.90;;;;;;5105414;28;20035;-78
2024/04/02 06:14:17;;;;;;;13.25;2.90;;;10.80;99.90;;;;;;5104548;28;20046;-76
2024/04/02 06:16:42;;;;;;;12.73;2.55;;;10.80;99.90;;;;;;5102661;28;20107;-76
2024/04/02 06:19:08;;;;;;;13.00;2.67;;;10.80;99.90;;;;;;5102684;28;20038;-76
2024/04/02 06:21:34;;;;;;;16.52;2.60;;;10.80;99.90;;;;;;5102665;28;20039;-76
2024/04/02 06:23:59;;;;;;;13.60;2.67;;;10.80;99.90;;;;;;5101130;28;20491;-76
2024/04/02 06:26:25;;;;;;;13.10;2.45;;;10.80;99.90;;;;;;5103543;28;20096;-78
2024/04/02 06:28:51;;;;;;;12.32;2.67;;;10.80;99.90;;;;;;5103404;28;20085;-77
2024/04/02 06:31:17;;;;;;;10.98;2.67;;;10.80;99.90;;;;;;5103516;28;20058;-77
2024/04/02 06:33:42;;;;;;;7.50;2.50;;;10.90;99.90;;;;;;5083424;28;20134;-78
2024/04/02 06:36:08;;;;;;;10.35;2.30;;;10.90;99.90;;;;;;5104140;28;20044;-76
2024/04/02 06:38:34;;;;;;;12.70;2.70;;;10.90;99.90;;;;;;5119545;27;20039;-76
2024/04/02 06:40:59;;;;;;;14.18;3.13;;;10.90;99.90;;;;;;5123246;27;20094;-78
2024/04/02 06:43:25;;;;;;;11.27;2.10;;;11.00;99.90;;;;;;5123496;27;20111;-77
2024/04/02 06:45:58;;;;;;;19.02;3.38;;;11.00;99.90;;;;;;5122407;27;20038;-81
2024/04/02 06:48:24;;;;;;;10.82;2.85;;;11.10;99.90;;;;;;5121867;27;20050;-77
2024/04/02 06:50:57;;;;;;;8.93;2.58;;;11.20;99.90;;;;;;5124248;27;20024;-77
2024/04/02 06:53:24;;;;;;;13.82;3.20;;;11.10;99.90;;;;;;5120222;27;20027;-77
2024/04/02 06:55:50;;;;;;;13.68;3.78;;;11.10;99.90;;;;;;5123295;27;20459;-80
2024/04/02 06:58:15;;;;;;;12.85;2.55;;;11.20;99.90;;;;;;5123775;27;20044;-78
2024/04/02 07:00:43;;;;;;;11.70;3.22;;;11.10;99.90;;;;;;5122030;27;20031;-79
2024/04/02 07:03:09;;;;;;;13.18;2.80;;;11.20;99.90;;;;;;5103254;27;20038;-78
2024/04/02 07:05:34;;;;;;;18.25;3.00;;;11.20;99.90;;;;;;5101439;27;20468;-77
2024/04/02 07:08:00;;;;;;;9.93;2.53;;;11.10;99.90;;;;;;5122855;27;20075;-77
2024/04/02 07:10:26;;;;;;;13.13;2.65;;;11.20;99.90;;;;;;5111713;27;20020;-78
2024/04/02 07:12:51;;;;;;;11.27;3.15;;;11.20;99.90;;;;;;5109644;27;20020;-79
2024/04/02 07:15:17;;;;;;;7.95;2.60;;;11.20;99.90;;;;;;5109514;27;20477;-79
2024/04/02 07:17:42;;;;;;;8.68;2.67;;;11.30;99.90;;;;;;5108776;28;20453;-81
2024/04/02 07:20:09;;;;;;;12.10;2.95;;;11.30;99.90;;;;;;5108517;27;20418;-77
2024/04/02 07:22:34;;;;;;;9.10;3.10;;;11.30;99.90;;;;;;5109941;27;20472;-80
2024/04/02 07:25:00;;;;;;;10.27;2.15;;;11.30;99.90;;;;;;5091000;27;20043;-78
2024/04/02 07:27:26;;;;;;;10.60;2.53;;;11.40;99.90;;;;;;5090249;28;20020;-82
2024/04/02 07:29:51;;;;;;;12.13;2.20;;;11.40;99.90;;;;;;5108821;27;20028;-79
2024/04/02 07:32:22;;;;;;;12.25;2.40;;;11.40;99.90;;;;;;5091410;27;20491;-79
2024/04/02 07:34:48;;;;;;;11.93;2.78;;;11.50;99.90;;;;;;5108702;27;20491;-82
2024/04/02 07:37:14;;;;;;;14.05;2.92;;;11.50;99.90;;;;;;5110262;27;20050;-77
2024/04/02 07:39:39;;;;;;;7.40;3.03;;;11.50;99.90;;;;;;5107924;27;20042;-81
2024/04/02 07:42:12;;;;;;;12.52;2.10;;;11.50;99.90;;;;;;5110321;27;20028;-79
2024/04/02 07:44:38;;;;;;;13.88;3.08;;;11.50;99.90;;;;;;5107993;27;20023;-78
2024/04/02 07:47:07;;;;;;;11.50;2.85;;;11.60;99.90;;;;;;5107907;27;20044;-79
2024/04/02 07:49:33;;;;;;;10.30;2.58;;;11.60;99.90;;;;;;5109589;28;20468;-78
2024/04/02 07:51:59;;;;;;;12.05;2.42;;;11.50;99.90;;;;;;5109859;27;20038;-78
2024/04/02 07:54:24;;;;;;;11.52;2.63;;;11.60;99.90;;;;;;5109048;27;20015;-78
2024/04/02 07:56:50;;;;;;;8.43;2.20;;;11.60;99.90;;;;;;5106673;28;20020;-82
2024/04/02 07:59:16;;;;;;;14.02;2.30;;;11.60;99.90;;;;;;5108599;27;20035;-80
2024/04/02 08:01:42;;;;;;;12.98;2.47;;;11.70;99.90;;;;;;5088750;28;20051;-82
2024/04/02 08:04:08;;;;;;;11.23;2.50;;;11.70;99.90;;;;;;5108580;27;20046;-83
2024/04/02 08:06:35;;;;;;;9.98;2.25;;;11.70;99.90;;;;;;5109099;27;20020;-81
2024/04/02 08:09:01;;;;;;;9.57;2.20;;;11.80;99.90;;;;;;5111895;27;20476;-81
2024/04/02 08:11:26;;;;;;;8.13;2.33;;;11.80;99.90;;;;;;5109371;27;20065;-78
2024/04/02 08:13:52;;;;;;;16.83;2.95;;;11.80;99.90;;;;;;5109619;27;20506;-76
2024/04/02 08:16:18;;;;;;;10.35;2.65;;;11.90;99.90;;;;;;5108001;27;20047;-77
2024/04/02 08:18:45;;;;;;;9.38;1.90;;;11.90;99.90;;;;;;5106986;28;20039;-78
2024/04/02 08:21:11;;;;;;;9.15;2.53;;;12.00;99.90;;;;;;5088779;28;20053;-77
2024/04/02 08:23:37;;;;;;;17.63;2.40;;;12.00;99.90;;;;;;5107996;27;20031;-78
2024/04/02 08:26:03;;;;;;;11.77;2.75;;;12.10;99.90;;;;;;5108365;27;20015;-78
2024/04/02 08:28:28;;;;;;;11.85;2.10;;;12.00;99.90;;;;;;5106765;27;20080;-78
2024/04/02 08:30:54;;;;;;;5.90;2.05;;;12.00;99.90;;;;;;5107726;27;20426;-79
2024/04/02 08:33:21;;;;;;;13.70;2.92;;;11.90;99.90;;;;;;5108429;27;20055;-78
2024/04/02 08:35:50;;;;;;;9.40;2.45;;;12.00;99.90;;;;;;5108399;27;20487;-76
2024/04/02 08:38:16;;;;;;;9.70;2.45;;;11.90;99.90;;;;;;5107943;27;20034;-85
2024/04/02 08:40:47;;;;;;;10.05;2.60;;;11.90;99.90;;;;;;5108571;27;20466;-75
2024/04/02 08:43:14;;;;;;;10.93;2.55;;;11.90;99.90;;;;;;5107024;28;20127;-80
2024/04/02 08:45:41;;;;;;;10.68;3.22;;;12.10;99.90;;;;;;5107577;27;20020;-77
2024/04/02 08:48:10;;;;;;;11.65;3.10;;;12.10;99.90;;;;;;5108520;27;20023;-77
2024/04/02 08:50:39;;;;;;;16.00;2.85;;;12.20;99.90;;;;;;5108291;27;20016;-80
2024/04/02 08:53:05;;;;;;;14.00;2.60;;;12.30;99.90;;;;;;5089751;28;20031;-80
2024/04/02 08:55:32;;;;;;;15.00;2.90;;;12.40;99.90;;;;;;5090289;27;20024;-80
2024/04/02 08:57:59;;;;;;;11.77;2.83;;;12.50;99.90;;;;;;5088254;27;20038;-80
2024/04/02 09:00:26;;;;;;;10.63;2.50;;;12.70;99.90;;;;;;5089203;28;20093;-78
2024/04/02 09:02:54;;;;;;;11.43;2.47;;;12.60;99.90;;;;;;5107592;28;20022;-79
2024/04/02 09:05:20;;;;;;;16.10;3.70;;;12.70;99.90;;;;;;5107591;27;20139;-79
2024/04/02 09:07:46;;;;;;;10.82;4.25;;;12.80;99.90;;;;;;5089599;28;20112;-78
2024/04/02 09:10:13;;;;;;;10.02;3.83;;;12.80;99.90;;;;;;5089398;28;20007;-80
2024/04/02 09:12:39;;;;;;;12.93;2.85;;;12.90;99.90;;;;;;5089148;28;20043;-80
2024/04/02 09:15:05;;;;;;;9.45;2.60;;;12.80;99.90;;;;;;5088761;27;20015;-80
2024/04/02 09:17:31;;;;;;;8.73;2.03;;;12.80;99.90;;;;;;5087087;28;20111;-78
2024/04/02 09:19:57;;;;;;;11.23;2.40;;;12.80;99.90;;;;;;5106802;27;20110;-78
2024/04/02 09:22:23;;;;;;;9.75;2.00;;;12.80;99.90;;;;;;5107354;28;20023;-82
2024/04/02 09:24:49;;;;;;;12.05;2.55;;;12.70;99.90;;;;;;5088131;27;20458;-79
2024/04/02 09:27:16;;;;;;;18.67;2.95;;;12.60;99.90;;;;;;5088919;28;20024;-80
2024/04/02 09:29:41;;;;;;;9.73;2.85;;;12.50;99.90;;;;;;5089745;28;20071;-78
2024/04/02 09:32:07;;;;;;;11.95;2.45;;;12.40;99.90;;;;;;5107747;27;20028;-77
2024/04/02 09:34:35;;;;;;;11.52;3.53;;;12.30;99.90;;;;;;5106053;27;20015;-74
2024/04/02 09:37:09;;;;;;;16.23;3.53;;;12.40;99.90;;;;;;5106530;28;20467;-74
2024/04/02 09:39:36;;;;;;;10.55;2.80;;;12.40;99.90;;;;;;5107296;28;20507;-74
2024/04/02 09:42:03;;;;;;;10.75;2.88;;;12.50;99.90;;;;;;5107208;27;20514;-74
2024/04/02 09:44:32;;;;;;;18.73;3.95;;;12.40;99.90;;;;;;5106426;28;20111;-75
2024/04/02 09:47:00;;;;;;;9.00;2.80;;;12.50;99.90;;;;;;5088393;28;20027;-75
2024/04/02 09:49:26;;;;;;;12.15;3.10;;;12.50;99.90;;;;;;5089451;28;20084;-74
2024/04/02 09:51:54;;;;;;;12.60;2.63;;;12.60;99.90;;;;;;5105852;28;20028;-74
2024/04/02 09:54:21;;;;;;;17.67;3.00;;;12.60;99.90;;;;;;5105671;28;20507;-75
2024/04/02 09:56:49;;;;;;;15.35;3.50;;;12.50;99.90;;;;;;5106350;28;20797;-75
2024/04/02 09:59:15;;;;;;;12.25;3.08;;;12.40;99.90;;;;;;5104710;28;20096;-75
2024/04/02 10:01:43;;;;;;;14.13;3.30;;;12.60;99.90;;;;;;5107914;28;20406;-75
2024/04/02 10:04:11;;;;;;;21.63;4.78;;;12.70;99.90;;;;;;5104685;28;20023;-76
2024/04/02 10:06:37;;;;;;;15.77;4.82;;;12.80;99.90;;;;;;5107154;28;20016;-75
2024/04/02 10:09:07;;;;;;;17.60;3.53;;;13.00;99.90;;;;;;5087351;28;20030;-75
2024/04/02 10:11:40;;;;;;;15.15;4.13;;;13.00;99.90;;;;;;5086809;28;20027;-75
2024/04/02 10:14:11;;;;;;;12.80;3.35;;;12.90;99.90;;;;;;5106632;28;20088;-74
2024/04/02 10:16:44;;;;;;;13.15;3.75;;;12.90;99.90;;;;;;5106746;28;20411;-74
2024/04/02 10:19:13;;;;;;;;;;;12.90;99.90;;;;;;5107124;28;20077;-74
2024/04/02 10:21:43;;;;;;;15.75;3.17;;;12.90;99.90;;;;;;5106323;28;20582;-74
2024/04/02 10:24:11;;;;;;;10.45;3.42;;;12.80;99.90;;;;;;5085965;28;20039;-74
2024/04/02 10:26:41;;;;;;;7.70;2.92;;;12.80;99.90;;;;;;5088520;28;20016;-74
2024/04/02 10:29:07;;;;;;;16.30;4.40;;;12.70;99.90;;;;;;5106656;28;20024;-75
2024/04/02 10:31:35;;;;;;;11.05;4.15;;;12.70;99.90;;;;;;5107136;28;20028;-75
2024/04/02 10:34:01;;;;;;;13.02;3.88;;;12.60;99.90;;;;;;5106260;28;20534;-73
2024/04/02 10:36:27;;;;;;;13.20;5.63;;;12.50;99.90;;;;;;5087201;28;20539;-73
2024/04/02 10:38:52;;;;;;;14.00;2.88;;;12.50;99.90;;;;;;5106202;28;20123;-75
2024/04/02 10:41:18;;;;;;;16.95;4.32;;;12.50;99.90;;;;;;5105201;28;20028;-74
2024/04/02 10:43:44;;;;;;;9.63;2.28;;;12.40;99.90;;;;;;5106830;28;20115;-74
2024/04/02 10:46:10;;;;;;;8.98;2.47;;;12.40;99.90;;;;;;5110291;27;20031;-73
2024/04/02 10:48:35;;;;;;;7.68;2.50;;;12.30;99.90;;;;;;5110125;27;20526;-73
2024/04/02 10:51:01;;;;;;;10.02;2.20;;;12.40;99.90;;;;;;5111443;27;20023;-73
2024/04/02 10:53:27;;;;;;;12.68;5.32;;;12.40;99.90;;;;;;5109768;27;20027;-74
2024/04/02 10:55:52;;;;;;;6.63;2.40;;;12.40;99.90;;;;;;5108757;27;20499;-74
2024/04/02 10:58:19;;;;;;;12.85;2.17;;;12.30;99.90;;;;;;5090846;28;20162;-73
2024/04/02 11:00:45;;;;;;;6.97;2.28;;;12.50;99.90;;;;;;5110219;27;20383;-73
2024/04/02 11:03:12;;;;;;;7.93;2.20;;;12.50;99.90;;;;;;5110630;27;20567;-74
2024/04/02 11:05:39;;;;;;;9.23;2.40;;;12.50;99.90;;;;;;5109976;27;20069;-74
2024/04/02 11:08:09;;;;;;;9.23;2.95;;;12.50;99.90;;;;;;5109926;27;20077;-74
2024/04/02 11:10:34;;;;;;;11.07;4.65;;;12.60;99.90;;;;;;5109775;27;20027;-74
2024/04/02 11:13:00;;;;;;;13.55;3.03;;;12.70;99.90;;;;;;5108808;27;20026;-74
2024/04/02 11:15:26;;;;;;;15.25;4.78;;;12.80;99.90;;;;;;5108404;27;20484;-75
2024/04/02 11:17:52;;;;;;;8.73;2.78;;;12.90;99.90;;;;;;5110245;27;20536;-75
2024/04/02 11:20:17;;;;;;;12.05;2.75;;;13.00;99.90;;;;;;5092126;27;20111;-75
2024/04/02 11:25:27;;;;;;;11.65;3.65;;;13.00;99.90;;;;;;5109792;27;20046;-75
2024/04/02 11:28:04;;;;;;;12.05;2.97;;;13.10;99.90;;;;;;5090069;28;20024;-75
2024/04/02 11:30:30;;;;;;;15.57;2.72;;;13.10;99.90;;;;;;5108793;28;20030;-76
2024/04/02 11:32:55;;;;;;;12.73;3.78;;;13.20;99.90;;;;;;5091354;27;20020;-75
2024/04/02 11:35:21;;;;;;;11.10;5.25;;;13.30;99.90;;;;;;5108966;27;20418;-76
2024/04/02 11:37:47;;;;;;;12.25;3.65;;;13.30;99.90;;;;;;5109750;27;20054;-76
2024/04/02 11:40:16;;;;;;;12.10;4.53;;;13.20;99.90;;;;;;5108737;27;20050;-77
2024/04/02 11:42:42;;;;;;;9.88;3.20;;;13.20;99.90;;;;;;5109697;27;20468;-76
2024/04/02 11:45:09;;;;;;;14.18;4.53;;;13.10;99.90;;;;;;5108490;27;20104;-76
2024/04/02 11:47:35;;;;;;;21.13;6.75;;;13.20;99.90;;;;;;5108311;28;20496;-76
2024/04/02 11:50:01;;;;;;;15.07;2.95;;;13.40;99.90;;;;;;5108883;27;20098;-76
2024/04/02 11:52:27;;;;;;;9.70;3.15;;;13.30;99.90;;;;;;5108193;27;20023;-76
2024/04/02 11:54:53;;;;;;;13.60;3.25;;;13.40;99.90;;;;;;5107994;27;20071;-76
2024/04/02 12:00:17;;;;;;;10.15;2.97;;;13.40;99.90;;;;;;5109569;27;20052;-75
2024/04/02 12:02:47;;;;;;;9.93;3.08;;;13.50;99.90;;;;;;5108464;27;20119;-76
2024/04/02 12:05:15;;;;;;;14.25;3.10;;;13.50;99.90;;;;;;5108466;27;20026;-75
2024/04/02 12:07:42;;;;;;;11.93;2.85;;;13.50;99.90;;;;;;5107359;27;20035;-75
2024/04/02 12:10:09;;;;;;;12.85;3.38;;;13.50;99.90;;;;;;5108990;27;20051;-75
2024/04/02 12:12:35;;;;;;;11.73;3.25;;;13.40;99.90;;;;;;5107939;27;20073;-75
2024/04/02 12:15:04;;;;;;;11.52;3.10;;;13.50;99.90;;;;;;5108979;27;20039;-75
2024/04/02 12:17:31;;;;;;;12.35;3.72;;;13.50;99.90;;;;;;5089161;28;20069;-75
2024/04/02 12:19:57;;;;;;;11.35;2.45;;;13.60;99.90;;;;;;5109673;27;20046;-74
2024/04/02 12:22:24;;;;;;;7.47;2.55;;;13.60;99.90;;;;;;5090373;28;20039;-75
2024/04/02 12:24:50;;;;;;;10.75;2.28;;;13.50;99.90;;;;;;5108223;27;20031;-74
2024/04/02 12:27:16;;;;;;;15.48;3.35;;;13.50;99.90;;;;;;5107100;27;20030;-75
2024/04/02 12:29:43;;;;;;;9.68;3.33;;;13.50;99.90;;;;;;5107696;27;20027;-76
2024/04/02 12:32:11;;;;;;;14.77;3.17;;;13.50;99.90;;;;;;5089602;27;20042;-76
2024/04/02 12:34:39;;;;;;;13.23;2.75;;;13.60;99.90;;;;;;5088701;28;20395;-76
2024/04/02 12:37:05;;;;;;;14.57;4.30;;;13.50;99.90;;;;;;5108073;27;20028;-76
2024/04/02 12:39:33;;;;;;;13.32;3.42;;;13.40;99.90;;;;;;5108366;27;20065;-76
2024/04/02 12:41:59;;;;;;;13.80;4.40;;;13.20;99.90;;;;;;5109721;27;20030;-75
2024/04/02 12:44:29;;;;;;;27.77;6.32;;;13.30;99.90;;;;;;5107544;27;20098;-73